Yakima, WA

5:33 AM PDT on October 21, 2014 (GMT -0700)
Terraced Estates | Change Station
CLOSE
Current Station
Personal Weather Station
Location: Terrace Heights, WA
Elevation: 1302 ft
Nearby Weather Stations

Elev 1302 ft 46.61 °N, 120.43 °W | Updated 5 minutes ago

Clear
Clear
41.9 °F
Feels Like 42 °F
N
0.0
Wind Variable Wind from NNW
Gusts 0.0 mph

Today
High -- | Low -- °F
--% Chance of Precip.
Yesterday
High -- | Low -- °F
Precip. -- in
7:27 AM 6:03 PM
Waning Crescent, 6% visible
Pressure 29.87 in
Visibility 10.0 miles
Clouds Clear
Windchill 42 °F
Dew Point 41 °F
Humidity 95%
Rainfall 0.00 in
Snow Depth Not available.
UV 0 out of 12
Pollen 1.40 out of 12
Air Quality Not available.
Flu Activity Sporadic
METAR K1YT 211156Z AUTO 27002KT 10SM CLR 06/05 A2987 RMK AO2 SLPNO 70006 T00620053 10107 20051 53010

More Conditions Fewer Conditions

Pressure 29.87 in
Visibility 10.0 miles
Clouds Clear
Windchill 42 °F
Dew Point 41 °F
Humidity 95%
Rainfall 0.00 in
Snow Depth Not available.
UV 0 out of 12
Pollen 1.40 out of 12
Air Quality Not available.
Flu Activity Sporadic
METAR K1YT 211156Z AUTO 27002KT 10SM CLR 06/05 A2987 RMK AO2 SLPNO 70006 T00620053 10107 20051 53010

More Conditions Fewer Conditions

10-Day Weather Forecast

Almanac

Astronomy

Oct. 21, 2014 Rise Set
Actual Time 7:27 AM PDT 6:03 PM PDT
Civil Twilight 6:57 AM PDT 6:34 PM PDT
Nautical Twilight 6:21 AM PDT 7:09 PM PDT
Astronomical Twilight 5:46 AM PDT 7:44 PM PDT
Moon 5:09 AM PDT 5:06 PM PDT
Length of Visible Light 11h 37m
Length of Day
10h 36m
Tomorrow will be 3m 8s shorter.
Waning Crescent, 6% of the Moon is Illuminated
Today
Waning Crescent
Oct 23
New
Oct 30
First Quarter
Nov 6
Full
Nov 14
Last Quarter

Today's Extremes

State Highs State Lows

Community

WunderPhotos

Upload Photos

1,763,647 photos uploaded!

Nearby

Snow Depth

Station Depth Elevation
Green Lake 0 in 6000 ft
Lost Horse 0 in 5000 ft
Trough 1 in 5300 ft
Grouse Camp 0 in 5380 ft
Bumping Ridge 0 in 4600 ft

Earthquake Activity

City Distance Mag. Time & Date
No recent earthquake activity has been reported nearby.
Minimum magnitude displayed is 2.5.

Coastal Water Temperatures

Place Temperature
No Stations Reporting

Nearby Weather Stations